KEGV

Details ICAO KEGV (EGV)
Name EAGLE RIVER UNION
Region United States
Timezone America/Chicago (UTC-6.0)
Plans Departing 1
Arriving 6
Stats Elevation 1,642 ft / 500 m (AMSL)
Location 45.932465° -89.268096°
Runways 2
Magnetic Variation 3.286° W
Sunrise 2017-12-14 13:32:48 UTC / 2017-12-14 07:32:48 Local
Sunset 2017-12-14 22:13:44 UTC / 2017-12-14 16:13:44 Local
Advertisement - Login to hide

Runways

ID Width Length Bearing (true) Bearing (mag) Surface Threshold Offset Overrun Length
04 76 ft / 23 m 4,996 ft / 1,523 m 45.27° 48.56° Asphalt 0 ft / 0 m 300 ft / 91 m
13 60 ft / 18 m 3,396 ft / 1,035 m 132.51° 135.80° Asphalt 0 ft / 0 m 0 ft / 0 m
22 76 ft / 23 m 4,996 ft / 1,523 m 225.28° 228.57° Asphalt 0 ft / 0 m 0 ft / 0 m
31 60 ft / 18 m 3,396 ft / 1,035 m 312.52° 315.81° Asphalt 0 ft / 0 m 0 ft / 0 m

Map

Weather


0- 5 10 15 20 25 30 35+ Temperature / ° C

Clouds and Precipitation
Forecast for 2017-12-15 00:00 UTC. Updated 9 minutes ago

Ground ~20,000 ft ~40,000 ft Winds

METAR

KEGV 141915Z AUTO 35004KT 5SM -SN OVC014 M10/M13 A2991 RMK AO2 T10961130

TAF

Not found

Frequencies

Recorded 118.32 MHz AWOS 3
Unicom 122.80 MHz CTAF/UNICOM
Warning: Do not use this data for real-world aviation or navigation. No guarantee of current accuracy is given.